createdAt,value
2024-04-22T00:02:06.865Z,10.48
2024-04-22T00:04:33.649Z,11.90
2024-04-22T00:07:00.307Z,13.30
2024-04-22T00:09:27.068Z,8.80
2024-04-22T00:11:53.679Z,13.57
2024-04-22T00:14:21.627Z,10.93
2024-04-22T00:16:48.388Z,11.73
2024-04-22T00:19:15.103Z,8.10
2024-04-22T00:21:41.721Z,11.40
2024-04-22T00:24:08.832Z,12.25
2024-04-22T00:26:35.529Z,10.65
2024-04-22T00:29:02.149Z,12.77
2024-04-22T00:31:28.953Z,9.88
2024-04-22T00:33:55.572Z,11.52
2024-04-22T00:36:22.179Z,9.30
2024-04-22T00:38:48.800Z,11.77
2024-04-22T00:41:15.420Z,7.05
2024-04-22T00:43:42.024Z,12.15
2024-04-22T00:46:09.820Z,12.63
2024-04-22T00:48:37.193Z,10.13
2024-04-22T00:51:04.274Z,10.20
2024-04-22T00:53:32.209Z,15.68
2024-04-22T00:55:59.590Z,8.70
2024-04-22T00:58:28.126Z,8.73
2024-04-22T01:00:57.086Z,10.70
2024-04-22T01:03:24.033Z,12.52
2024-04-22T01:05:50.691Z,12.10
2024-04-22T01:08:17.289Z,14.80
2024-04-22T01:10:44.098Z,13.85
2024-04-22T01:13:10.907Z,12.40
2024-04-22T01:15:37.528Z,10.85
2024-04-22T01:18:04.196Z,12.63
2024-04-22T01:20:30.802Z,9.10
2024-04-22T01:22:57.476Z,17.83
2024-04-22T01:25:24.136Z,15.10
2024-04-22T01:27:50.898Z,13.07
2024-04-22T01:30:17.606Z,18.90
2024-04-22T01:32:44.307Z,20.60
2024-04-22T01:35:11.148Z,18.88
2024-04-22T01:37:38.016Z,18.42
2024-04-22T01:40:05.216Z,12.85
2024-04-22T01:42:31.894Z,14.43
2024-04-22T01:44:58.516Z,13.82
2024-04-22T01:47:25.205Z,18.00
2024-04-22T01:49:51.850Z,17.52
2024-04-22T01:52:18.831Z,18.48
2024-04-22T01:54:45.525Z,16.25
2024-04-22T01:57:12.328Z,15.60
2024-04-22T01:59:39.257Z,19.50
2024-04-22T02:02:05.995Z,18.38
2024-04-22T02:04:32.844Z,19.52
2024-04-22T02:06:59.636Z,17.38
2024-04-22T02:09:26.254Z,15.50
2024-04-22T02:11:52.964Z,13.73
2024-04-22T02:14:19.853Z,14.50
2024-04-22T02:16:49.781Z,16.48
2024-04-22T02:19:16.497Z,14.90
2024-04-22T02:21:43.128Z,16.15
2024-04-22T02:24:09.718Z,19.55
2024-04-22T02:26:36.315Z,14.85
2024-04-22T02:29:02.929Z,19.73
2024-04-22T02:31:29.763Z,13.95
2024-04-22T02:33:56.404Z,12.95
2024-04-22T02:36:22.983Z,19.17
2024-04-22T02:38:49.666Z,15.95
2024-04-22T02:41:16.239Z,13.38
2024-04-22T02:43:42.874Z,16.90
2024-04-22T02:46:09.513Z,16.63
2024-04-22T02:48:36.155Z,15.07
2024-04-22T02:51:03.975Z,18.30
2024-04-22T02:53:30.694Z,15.68
2024-04-22T02:55:57.360Z,12.35
2024-04-22T02:58:24.056Z,13.52
2024-04-22T03:00:55.319Z,18.27
2024-04-22T03:03:23.100Z,15.88
2024-04-22T03:05:49.794Z,14.68
2024-04-22T03:08:16.452Z,14.68
2024-04-22T03:10:43.171Z,10.57
2024-04-22T03:13:12.790Z,17.48
2024-04-22T03:15:40.366Z,19.27
2024-04-22T03:18:07.255Z,13.88
2024-04-22T03:20:37.025Z,15.43
2024-04-22T03:23:03.781Z,16.05
2024-04-22T03:25:30.436Z,16.08
2024-04-22T03:27:57.115Z,20.33
2024-04-22T03:30:23.745Z,17.27
2024-04-22T03:32:50.355Z,17.52
2024-04-22T03:35:17.048Z,23.15
2024-04-22T03:37:43.899Z,19.77
2024-04-22T03:40:10.563Z,19.35
2024-04-22T03:42:39.202Z,18.23
2024-04-22T03:45:06.199Z,20.60
2024-04-22T03:47:51.415Z,18.52
2024-04-22T03:50:18.052Z,17.75
2024-04-22T03:52:44.758Z,22.17
2024-04-22T03:55:11.493Z,17.63
2024-04-22T03:57:38.137Z,22.92
2024-04-22T04:00:05.083Z,19.63
2024-04-22T04:02:31.691Z,19.65
2024-04-22T04:04:58.391Z,21.48
2024-04-22T04:07:25.036Z,17.58
2024-04-22T04:09:51.711Z,16.98
2024-04-22T04:12:18.300Z,13.48
2024-04-22T04:14:44.904Z,15.98
2024-04-22T04:17:11.664Z,20.55
2024-04-22T04:19:38.436Z,17.17
2024-04-22T04:22:05.205Z,18.88
2024-04-22T04:24:31.830Z,13.63
2024-04-22T04:26:58.543Z,18.77
2024-04-22T04:29:25.154Z,18.90
2024-04-22T04:31:51.792Z,20.13
2024-04-22T04:34:18.661Z,22.63
2024-04-22T04:36:45.280Z,17.80
2024-04-22T04:39:11.991Z,19.45
2024-04-22T04:41:39.551Z,14.95
2024-04-22T04:44:06.164Z,18.70
2024-04-22T04:46:32.773Z,20.10
2024-04-22T04:48:59.436Z,22.02
2024-04-22T04:51:26.070Z,16.05
2024-04-22T04:53:52.663Z,14.73
2024-04-22T04:56:19.264Z,16.52
2024-04-22T04:58:45.877Z,23.95
2024-04-22T05:01:13.579Z,17.33
2024-04-22T05:03:41.363Z,18.25
2024-04-22T05:06:08.063Z,19.73
2024-04-22T05:08:34.655Z,15.82
2024-04-22T05:11:05.162Z,23.00
2024-04-22T05:13:31.857Z,20.40
2024-04-22T05:15:58.492Z,17.00
2024-04-22T05:18:25.117Z,15.50
2024-04-22T05:20:53.086Z,18.65
2024-04-22T05:23:19.727Z,15.77
2024-04-22T05:25:46.705Z,10.30
2024-04-22T05:28:13.441Z,23.35
2024-04-22T05:30:40.064Z,20.25
2024-04-22T05:33:29.665Z,16.13
2024-04-22T05:36:16.339Z,19.02
2024-04-22T05:38:44.263Z,15.18
2024-04-22T05:41:12.162Z,14.82
2024-04-22T05:43:38.842Z,15.57
2024-04-22T05:46:07.413Z,15.90
2024-04-22T05:48:34.272Z,24.77
2024-04-22T05:51:00.956Z,29.30
2024-04-22T05:53:27.572Z,14.10
2024-04-22T05:55:54.292Z,15.48
2024-04-22T05:58:29.890Z,19.73
2024-04-22T06:00:57.680Z,15.95
2024-04-22T06:03:24.355Z,15.18
2024-04-22T06:05:51.154Z,18.95
2024-04-22T06:08:19.144Z,19.45
2024-04-22T06:10:45.984Z,16.15
2024-04-22T06:13:12.732Z,18.20
2024-04-22T06:15:39.372Z,17.92
2024-04-22T06:18:06.220Z,14.68
2024-04-22T06:20:32.874Z,16.48
2024-04-22T06:22:59.505Z,20.42
2024-04-22T06:25:26.436Z,17.48
2024-04-22T06:27:53.039Z,14.45
2024-04-22T06:30:19.693Z,15.18
2024-04-22T06:32:46.604Z,12.95
2024-04-22T06:35:13.289Z,14.68
2024-04-22T06:37:39.927Z,12.80
2024-04-22T06:40:07.356Z,15.57
2024-04-22T06:42:33.964Z,15.45
2024-04-22T06:45:00.609Z,16.33
2024-04-22T06:47:27.300Z,15.60
2024-04-22T06:49:56.736Z,15.75
2024-04-22T06:52:23.562Z,14.10
2024-04-22T06:54:50.456Z,14.57
2024-04-22T06:57:18.631Z,18.55
2024-04-22T06:59:47.954Z,15.90
2024-04-22T07:02:18.043Z,14.20
2024-04-22T07:04:47.877Z,17.33
2024-04-22T07:07:14.553Z,10.88
2024-04-22T07:09:41.228Z,12.00
2024-04-22T07:12:07.928Z,16.48
2024-04-22T07:14:34.543Z,14.77
2024-04-22T07:17:01.170Z,16.75
2024-04-22T07:19:27.919Z,13.20
2024-04-22T07:21:54.654Z,18.08
2024-04-22T07:24:21.264Z,12.10
2024-04-22T07:26:48.150Z,15.18
2024-04-22T07:29:15.371Z,14.02
2024-04-22T07:31:43.856Z,14.18
2024-04-22T07:34:10.821Z,14.57
2024-04-22T07:36:38.822Z,15.23
2024-04-22T07:39:10.131Z,13.23
2024-04-22T07:41:37.103Z,11.77
2024-04-22T07:44:04.318Z,13.90
2024-04-22T07:46:31.642Z,12.35
2024-04-22T07:48:58.394Z,14.65
2024-04-22T07:51:25.070Z,14.38
2024-04-22T07:53:52.285Z,10.73
2024-04-22T07:56:19.520Z,11.88
2024-04-22T07:58:46.825Z,12.40
2024-04-22T08:01:14.507Z,12.75
2024-04-22T08:03:42.658Z,13.48
2024-04-22T08:06:20.917Z,10.27
2024-04-22T08:08:47.790Z,12.00
2024-04-22T08:11:14.515Z,6.60
2024-04-22T08:13:41.211Z,16.13
2024-04-22T08:16:07.983Z,14.98
2024-04-22T08:18:35.297Z,11.98
2024-04-22T08:21:03.803Z,11.27
2024-04-22T08:23:32.303Z,10.85
2024-04-22T08:25:59.085Z,10.30
2024-04-22T08:28:26.042Z,12.82
2024-04-22T08:31:01.576Z,10.48
2024-04-22T08:33:28.351Z,12.27
2024-04-22T08:35:55.058Z,11.80
2024-04-22T08:38:21.712Z,10.95
2024-04-22T08:40:48.772Z,10.25
2024-04-22T08:43:16.570Z,8.43
2024-04-22T08:45:44.905Z,10.85
2024-04-22T08:48:12.379Z,12.57
2024-04-22T08:50:40.439Z,8.40
2024-04-22T08:53:09.507Z,10.88
2024-04-22T08:55:42.711Z,11.55
2024-04-22T08:58:09.344Z,11.07
2024-04-22T09:00:36.056Z,10.25
2024-04-22T09:03:02.788Z,8.38
2024-04-22T09:05:30.195Z,11.77
2024-04-22T09:08:05.698Z,7.93
2024-04-22T09:11:05.419Z,9.48
2024-04-22T09:13:20.498Z,9.05
2024-04-22T09:15:54.279Z,8.07
2024-04-22T09:18:21.063Z,8.52
2024-04-22T09:20:47.823Z,8.65
2024-04-22T09:23:18.299Z,9.40
2024-04-22T09:25:45.226Z,7.55
2024-04-22T09:28:12.711Z,11.63
2024-04-22T09:30:42.171Z,5.07
2024-04-22T09:33:11.242Z,7.32
2024-04-22T09:35:39.808Z,7.95
2024-04-22T09:38:06.817Z,7.65
2024-04-22T09:40:33.794Z,7.93
2024-04-22T09:43:01.801Z,6.80
2024-04-22T09:45:28.408Z,6.07
2024-04-22T09:47:56.082Z,7.82
2024-04-22T09:50:27.157Z,6.07
2024-04-22T09:52:56.046Z,4.53
2024-04-22T09:55:22.969Z,8.13
2024-04-22T09:57:50.754Z,7.70
2024-04-22T10:00:18.334Z,7.00
2024-04-22T10:02:46.802Z,6.55
2024-04-22T10:05:15.215Z,6.57
2024-04-22T10:07:42.229Z,8.50
2024-04-22T10:10:10.669Z,7.93
2024-04-22T10:12:37.430Z,5.10
2024-04-22T10:15:11.357Z,8.15
2024-04-22T10:17:38.714Z,7.13
2024-04-22T10:20:07.755Z,5.82
2024-04-22T10:22:41.244Z,7.55
2024-04-22T10:25:09.851Z,7.18
2024-04-22T10:27:37.068Z,7.60
2024-04-22T10:30:08.357Z,5.85
2024-04-22T10:32:36.186Z,5.68
2024-04-22T10:35:02.845Z,6.13
2024-04-22T10:37:29.623Z,6.35
2024-04-22T10:39:56.287Z,5.95
2024-04-22T10:42:25.744Z,7.75
2024-04-22T10:44:55.003Z,6.20
2024-04-22T10:47:21.903Z,6.78
2024-04-22T10:49:48.758Z,7.32
2024-04-22T10:52:15.495Z,6.63
2024-04-22T10:54:42.112Z,4.75
2024-04-22T10:57:09.500Z,6.72
2024-04-22T10:59:36.895Z,6.82
2024-04-22T11:02:04.397Z,4.90
2024-04-22T11:04:31.478Z,6.28
2024-04-22T11:06:58.105Z,6.65
2024-04-22T11:09:25.459Z,5.78
2024-04-22T11:11:52.568Z,8.65
2024-04-22T11:14:20.278Z,8.00
2024-04-22T11:16:46.919Z,7.72
2024-04-22T11:19:13.636Z,4.78
2024-04-22T11:21:41.075Z,8.15
2024-04-22T11:24:08.415Z,7.15
2024-04-22T11:26:35.920Z,5.13
2024-04-22T11:29:04.503Z,6.57
2024-04-22T11:31:34.281Z,6.65
2024-04-22T11:34:02.692Z,5.97
2024-04-22T11:36:35.137Z,5.50
2024-04-22T11:39:15.228Z,4.63
2024-04-22T11:41:42.188Z,4.55
2024-04-22T11:44:09.061Z,5.63
2024-04-22T11:46:35.857Z,8.10
2024-04-22T11:49:09.354Z,7.78
2024-04-22T11:51:36.269Z,4.97
2024-04-22T11:54:03.211Z,8.02
2024-04-22T11:56:41.471Z,7.70
2024-04-22T11:59:08.194Z,7.75
2024-04-22T12:01:35.302Z,5.18
2024-04-22T12:04:02.395Z,7.70
2024-04-22T12:06:29.278Z,5.85
2024-04-22T12:08:55.975Z,6.28
2024-04-22T12:11:22.885Z,7.80
2024-04-22T12:13:49.697Z,6.95
2024-04-22T12:16:16.503Z,5.45
2024-04-22T12:18:43.181Z,4.25
2024-04-22T12:21:09.861Z,7.57
2024-04-22T12:23:36.619Z,7.10
2024-04-22T12:26:03.321Z,6.78
2024-04-22T12:28:29.971Z,6.60
2024-04-22T12:30:56.640Z,6.38
2024-04-22T12:33:24.265Z,6.65
2024-04-22T12:35:51.180Z,7.90
2024-04-22T12:38:17.976Z,4.88
2024-04-22T12:40:45.046Z,6.22
2024-04-22T12:43:11.780Z,5.85
2024-04-22T12:45:41.723Z,8.68
2024-04-22T12:48:27.519Z,5.13
2024-04-22T12:50:57.920Z,5.45
2024-04-22T12:53:25.446Z,6.38
2024-04-22T12:55:52.099Z,6.80
2024-04-22T12:58:20.384Z,4.90
2024-04-22T13:00:47.602Z,4.90
2024-04-22T13:03:14.332Z,6.30
2024-04-22T13:05:40.964Z,7.03
2024-04-22T13:08:07.684Z,7.28
2024-04-22T13:10:34.426Z,5.68
2024-04-22T13:13:03.538Z,6.53
2024-04-22T13:15:32.158Z,6.45
2024-04-22T13:18:00.946Z,6.07
2024-04-22T13:20:28.239Z,7.20
2024-04-22T13:22:55.336Z,5.13
2024-04-22T13:25:22.111Z,4.50
2024-04-22T13:27:50.016Z,4.07
2024-04-22T13:30:17.033Z,6.90
2024-04-22T13:32:45.038Z,6.80
2024-04-22T13:35:11.767Z,5.82
2024-04-22T13:37:39.637Z,6.53
2024-04-22T13:40:07.574Z,6.25
2024-04-22T13:42:38.226Z,5.40
2024-04-22T13:45:07.919Z,5.85
2024-04-22T13:47:34.655Z,5.25
2024-04-22T13:50:01.345Z,6.75
2024-04-22T13:52:28.221Z,5.28
2024-04-22T13:54:54.859Z,6.70
2024-04-22T13:57:21.465Z,6.65
2024-04-22T13:59:48.103Z,6.18
2024-04-22T14:02:14.852Z,5.97
2024-04-22T14:04:41.518Z,5.50
2024-04-22T14:07:08.264Z,4.78
2024-04-22T14:09:34.825Z,7.38
2024-04-22T14:12:01.468Z,7.10
2024-04-22T14:14:30.188Z,5.88
2024-04-22T14:16:57.079Z,6.05
2024-04-22T14:19:23.847Z,8.32
2024-04-22T14:21:50.489Z,7.90
2024-04-22T14:24:17.747Z,7.38
2024-04-22T14:26:44.369Z,6.53
2024-04-22T14:29:10.998Z,6.38
2024-04-22T14:31:37.622Z,6.18
2024-04-22T14:34:05.152Z,6.40
2024-04-22T14:36:31.861Z,4.32
2024-04-22T14:38:58.557Z,5.60
2024-04-22T14:41:25.132Z,4.90
2024-04-22T14:43:51.807Z,6.03
2024-04-22T14:46:20.782Z,6.65
2024-04-22T14:48:47.679Z,5.90
2024-04-22T14:51:14.377Z,6.10
2024-04-22T14:53:40.998Z,5.68
2024-04-22T14:56:07.739Z,5.10
2024-04-22T14:58:34.449Z,6.57
2024-04-22T15:01:01.181Z,5.90
2024-04-22T15:03:28.011Z,5.65
2024-04-22T15:05:54.647Z,5.38
2024-04-22T15:08:21.300Z,5.43
2024-04-22T15:10:50.923Z,6.28
2024-04-22T15:13:18.437Z,5.90
2024-04-22T15:15:45.044Z,5.95
2024-04-22T15:18:11.765Z,6.20
2024-04-22T15:20:38.525Z,5.38
2024-04-22T15:23:05.283Z,6.35
2024-04-22T15:25:32.010Z,7.50
2024-04-22T15:27:58.655Z,4.55
2024-04-22T15:30:25.320Z,5.55
2024-04-22T15:32:52.052Z,6.20
2024-04-22T15:35:19.125Z,5.78
2024-04-22T15:37:45.800Z,5.13
2024-04-22T15:40:12.477Z,5.35
2024-04-22T15:42:39.187Z,5.72
2024-04-22T15:45:06.036Z,6.25
2024-04-22T15:47:32.744Z,6.70
2024-04-22T15:49:59.447Z,4.65
2024-04-22T15:52:26.057Z,6.30
2024-04-22T15:54:52.733Z,4.85
2024-04-22T15:57:19.380Z,4.38
2024-04-22T15:59:55.378Z,5.38
2024-04-22T16:02:28.697Z,6.05
2024-04-22T16:04:55.411Z,5.93
2024-04-22T16:07:22.899Z,4.95
2024-04-22T16:09:50.394Z,4.57
2024-04-22T16:12:17.017Z,4.18
2024-04-22T16:14:43.673Z,5.63
2024-04-22T16:17:10.312Z,5.53
2024-04-22T16:19:36.953Z,5.35
2024-04-22T16:22:03.670Z,4.25
2024-04-22T16:24:30.262Z,5.00
2024-04-22T16:26:56.889Z,6.30
2024-04-22T16:29:23.480Z,5.05
2024-04-22T16:31:50.150Z,6.53
2024-04-22T16:34:16.943Z,5.55
2024-04-22T16:36:45.357Z,3.95
2024-04-22T16:39:11.966Z,5.25
2024-04-22T16:41:38.566Z,4.72
2024-04-22T16:44:05.345Z,7.40
2024-04-22T16:46:32.036Z,5.18
2024-04-22T16:48:58.688Z,5.45
2024-04-22T16:51:25.281Z,4.65
2024-04-22T16:53:52.093Z,5.32
2024-04-22T16:56:18.738Z,4.32
2024-04-22T16:58:45.448Z,5.00
2024-04-22T17:01:12.141Z,4.28
2024-04-22T17:03:38.832Z,3.97
2024-04-22T17:06:05.638Z,4.93
2024-04-22T17:08:32.267Z,4.65
2024-04-22T17:11:08.215Z,5.45
2024-04-22T17:13:34.971Z,4.93
2024-04-22T17:16:01.628Z,4.57
2024-04-22T17:18:28.419Z,3.67
2024-04-22T17:20:56.165Z,3.92
2024-04-22T17:23:22.856Z,4.20
2024-04-22T17:25:50.152Z,5.18
2024-04-22T17:28:18.411Z,3.88
2024-04-22T17:30:49.764Z,4.10
2024-04-22T17:33:17.029Z,3.63
2024-04-22T17:35:44.186Z,3.60
2024-04-22T17:38:11.030Z,4.05
2024-04-22T17:40:38.151Z,4.28
2024-04-22T17:43:05.073Z,4.80
2024-04-22T17:45:31.674Z,4.82
2024-04-22T17:47:58.369Z,5.05
2024-04-22T17:50:24.989Z,5.95
2024-04-22T17:52:51.582Z,4.40
2024-04-22T17:55:18.234Z,6.15
2024-04-22T17:57:44.869Z,7.38
2024-04-22T18:00:14.331Z,4.75
2024-04-22T18:02:42.646Z,5.22
2024-04-22T18:05:09.336Z,6.03
2024-04-22T18:07:36.052Z,4.50
2024-04-22T18:10:02.621Z,5.55
2024-04-22T18:12:29.225Z,7.93
2024-04-22T18:14:55.844Z,6.07
2024-04-22T18:17:22.469Z,5.38
2024-04-22T18:19:49.236Z,5.05
2024-04-22T18:22:17.982Z,5.35
2024-04-22T18:24:48.402Z,5.97
2024-04-22T18:27:15.058Z,6.22
2024-04-22T18:29:41.691Z,4.50
2024-04-22T18:32:08.283Z,4.80
2024-04-22T18:34:36.277Z,6.05
2024-04-22T18:37:03.693Z,6.90
2024-04-22T18:39:30.376Z,5.13
2024-04-22T18:41:56.946Z,7.22
2024-04-22T18:44:25.105Z,5.43
2024-04-22T18:46:51.769Z,6.05
2024-04-22T18:49:18.456Z,5.15
2024-04-22T18:51:45.051Z,6.60
2024-04-22T18:54:11.668Z,5.13
2024-04-22T18:56:38.264Z,6.47
2024-04-22T18:59:04.874Z,7.10
2024-04-22T19:01:31.806Z,6.43
2024-04-22T19:03:58.487Z,7.18
2024-04-22T19:06:25.241Z,7.03
2024-04-22T19:08:51.827Z,6.00
2024-04-22T19:11:18.484Z,7.95
2024-04-22T19:13:45.186Z,5.78
2024-04-22T19:16:11.849Z,7.38
2024-04-22T19:18:38.560Z,7.32
2024-04-22T19:21:05.342Z,7.13
2024-04-22T19:23:31.974Z,8.07
2024-04-22T19:25:58.623Z,6.35
2024-04-22T19:28:27.557Z,5.53
2024-04-22T19:30:56.599Z,7.22
2024-04-22T19:33:23.512Z,6.40
2024-04-22T19:35:51.380Z,7.97
2024-04-22T19:38:18.291Z,6.40
2024-04-22T19:40:45.398Z,8.27
2024-04-22T19:43:12.045Z,6.30
2024-04-22T19:45:38.770Z,7.45
2024-04-22T19:48:05.777Z,7.05
2024-04-22T19:50:32.434Z,7.18
2024-04-22T19:52:59.095Z,5.65
2024-04-22T19:55:25.779Z,6.60
2024-04-22T19:57:53.722Z,6.22
2024-04-22T20:00:20.551Z,7.65
2024-04-22T20:02:48.742Z,8.50
2024-04-22T20:05:15.619Z,5.97
2024-04-22T20:07:42.246Z,8.40
2024-04-22T20:10:08.923Z,7.40
2024-04-22T20:12:35.608Z,8.10
2024-04-22T20:15:04.834Z,8.23
2024-04-22T20:17:42.914Z,6.90
2024-04-22T20:20:09.887Z,7.55
2024-04-22T20:22:36.591Z,6.20
2024-04-22T20:25:03.529Z,21.83
2024-04-22T20:27:30.173Z,8.38
2024-04-22T20:29:56.808Z,6.28
2024-04-22T20:32:23.593Z,7.00
2024-04-22T20:34:50.841Z,6.35
2024-04-22T20:37:17.511Z,9.00
2024-04-22T20:39:44.135Z,6.70
2024-04-22T20:42:10.740Z,5.80
2024-04-22T20:44:37.349Z,8.00
2024-04-22T20:47:04.054Z,6.68
2024-04-22T20:49:30.716Z,7.05
2024-04-22T20:51:57.314Z,7.47
2024-04-22T20:54:24.027Z,6.55
2024-04-22T20:56:50.630Z,5.78
2024-04-22T20:59:17.237Z,7.18
2024-04-22T21:01:43.935Z,6.57
2024-04-22T21:04:10.550Z,7.47
2024-04-22T21:06:37.213Z,6.53
2024-04-22T21:09:03.961Z,7.40
2024-04-22T21:11:30.559Z,8.80
2024-04-22T21:14:02.072Z,8.18
2024-04-22T21:19:06.838Z,8.15
2024-04-22T21:21:38.016Z,10.55
2024-04-22T21:24:04.763Z,9.65
2024-04-22T21:26:31.419Z,10.85
2024-04-22T21:28:58.020Z,8.20
2024-04-22T21:31:24.752Z,11.95
2024-04-22T21:34:10.209Z,11.05
2024-04-22T21:36:37.143Z,9.70
2024-04-22T21:39:04.181Z,10.38
2024-04-22T21:41:30.955Z,9.90
2024-04-22T21:43:57.681Z,12.48
2024-04-22T21:46:24.405Z,11.43
2024-04-22T21:48:51.083Z,11.60
2024-04-22T21:51:17.695Z,10.05
2024-04-22T21:53:44.270Z,12.25
2024-04-22T21:56:13.350Z,11.10
2024-04-22T21:59:17.507Z,12.43
2024-04-22T22:02:22.168Z,13.15
2024-04-22T22:05:26.582Z,10.57
2024-04-22T22:07:53.279Z,10.85
2024-04-22T22:10:19.961Z,11.73
2024-04-22T22:12:46.645Z,12.85
2024-04-22T22:15:13.242Z,11.90
2024-04-22T22:17:41.103Z,12.30
2024-04-22T22:20:08.237Z,14.52
2024-04-22T22:22:34.938Z,11.98
2024-04-22T22:25:02.942Z,12.85
2024-04-22T22:27:29.666Z,12.18
2024-04-22T22:29:56.458Z,10.93
2024-04-22T22:32:23.206Z,14.15
2024-04-22T22:34:50.153Z,12.35
2024-04-22T22:37:16.815Z,13.27
2024-04-22T22:39:43.621Z,13.60
2024-04-22T22:42:10.724Z,12.80
2024-04-22T22:44:37.343Z,14.13
2024-04-22T22:47:06.334Z,11.88
2024-04-22T22:49:33.748Z,11.32
2024-04-22T22:52:00.539Z,12.88
2024-04-22T22:54:27.231Z,12.13
2024-04-22T22:57:01.701Z,10.82
2024-04-22T22:59:29.252Z,12.20
2024-04-22T23:01:58.124Z,13.18
2024-04-22T23:04:25.092Z,14.35
2024-04-22T23:06:51.824Z,15.10
2024-04-22T23:09:18.506Z,15.70
2024-04-22T23:11:45.238Z,14.82
2024-04-22T23:14:11.914Z,16.70
2024-04-22T23:16:38.512Z,15.10
2024-04-22T23:19:05.176Z,14.27
2024-04-22T23:21:31.778Z,14.85
2024-04-22T23:23:58.429Z,15.50
2024-04-22T23:26:25.022Z,13.52
2024-04-22T23:28:52.533Z,15.20
2024-04-22T23:31:19.306Z,17.63
2024-04-22T23:33:45.976Z,15.05
2024-04-22T23:36:12.536Z,13.13
2024-04-22T23:38:39.171Z,16.42
2024-04-22T23:41:05.820Z,14.18
2024-04-22T23:43:32.416Z,17.15
2024-04-22T23:45:59.028Z,17.00
2024-04-22T23:48:25.680Z,13.88
2024-04-22T23:50:52.259Z,15.25
2024-04-22T23:53:20.790Z,14.55
2024-04-22T23:55:47.683Z,13.93
2024-04-22T23:58:14.357Z,12.90
